createdAt,value
2018-04-27T00:00:33.184Z,70.30
2018-04-27T00:03:01.178Z,70.00
2018-04-27T00:05:29.161Z,69.80
2018-04-27T00:07:57.162Z,70.20
2018-04-27T00:10:25.160Z,70.60
2018-04-27T00:12:53.174Z,71.00
2018-04-27T00:15:21.931Z,72.10
2018-04-27T00:17:49.927Z,72.00
2018-04-27T00:20:17.936Z,71.90
2018-04-27T00:22:46.689Z,71.90
2018-04-27T00:25:14.866Z,71.90
2018-04-27T00:27:42.865Z,72.00
2018-04-27T00:30:10.867Z,72.70
2018-04-27T00:32:38.875Z,72.30
2018-04-27T00:35:06.858Z,72.30
2018-04-27T00:37:34.899Z,72.40
2018-04-27T00:40:02.904Z,72.60
2018-04-27T00:42:31.671Z,73.40
2018-04-27T00:44:59.675Z,73.30
2018-04-27T00:47:27.670Z,73.70
2018-04-27T00:49:56.499Z,73.60
2018-04-27T00:52:25.328Z,73.20
2018-04-27T00:54:53.369Z,73.30
2018-04-27T00:57:21.440Z,73.60
2018-04-27T00:59:49.473Z,74.50
2018-04-27T01:02:17.520Z,74.80
2018-04-27T01:04:46.306Z,76.50
2018-04-27T01:07:14.410Z,76.30
2018-04-27T01:09:42.719Z,76.40
2018-04-27T01:12:10.767Z,76.10
2018-04-27T01:14:38.815Z,75.90
2018-04-27T01:17:06.846Z,75.80
2018-04-27T01:19:35.663Z,76.00
2018-04-27T01:22:04.450Z,76.00
2018-04-27T01:24:33.951Z,75.80
2018-04-27T01:27:01.984Z,75.70
2018-04-27T01:29:30.362Z,75.80
2018-04-27T01:31:58.400Z,75.60
2018-04-27T01:34:26.448Z,75.50
2018-04-27T01:36:54.500Z,75.90
2018-04-27T01:39:23.316Z,77.20
2018-04-27T01:41:52.120Z,77.40
2018-04-27T01:44:20.239Z,77.40
2018-04-27T01:46:48.286Z,77.40
2018-04-27T01:49:17.075Z,77.50
2018-04-27T01:51:46.363Z,77.30
2018-04-27T01:54:14.397Z,77.30
2018-04-27T01:56:42.441Z,77.80
2018-04-27T01:59:10.467Z,77.90
2018-04-27T02:01:38.519Z,77.90
2018-04-27T02:04:06.556Z,78.20
2018-04-27T02:06:35.527Z,78.00
2018-04-27T02:09:03.587Z,77.90
2018-04-27T02:11:32.375Z,78.30
2018-04-27T02:14:01.212Z,78.60
2018-04-27T02:16:30.003Z,79.40
2018-04-27T02:18:58.831Z,79.40
2018-04-27T02:21:26.856Z,79.30
2018-04-27T02:23:55.887Z,79.50
2018-04-27T02:26:24.703Z,78.60
2018-04-27T02:28:53.504Z,78.20
2018-04-27T02:31:22.319Z,77.90
2018-04-27T02:33:50.366Z,77.70
2018-04-27T02:36:18.413Z,77.90
2018-04-27T02:38:46.440Z,78.30
2018-04-27T02:41:14.479Z,79.50
2018-04-27T02:43:42.536Z,79.70
2018-04-27T02:46:10.568Z,79.70
2018-04-27T02:48:38.644Z,79.50
2018-04-27T02:51:06.687Z,79.70
2018-04-27T02:53:34.743Z,79.80
2018-04-27T02:56:03.684Z,81.20
2018-04-27T02:58:31.720Z,81.10
2018-04-27T03:00:59.751Z,79.80
2018-04-27T03:03:27.791Z,79.50
2018-04-27T03:05:55.830Z,79.60
2018-04-27T03:08:23.880Z,81.70
2018-04-27T03:10:52.688Z,80.50
2018-04-27T03:13:20.735Z,80.40
2018-04-27T03:15:50.267Z,81.10
2018-04-27T03:18:19.086Z,81.10
2018-04-27T03:20:47.880Z,80.40
2018-04-27T03:23:16.696Z,81.20
2018-04-27T03:25:44.739Z,81.00
2018-04-27T03:28:12.772Z,81.60
2018-04-27T03:30:40.811Z,81.20
2018-04-27T03:33:08.840Z,81.40
2018-04-27T03:35:36.884Z,81.10
2018-04-27T03:38:04.919Z,81.40
2018-04-27T03:40:32.959Z,81.70
2018-04-27T03:43:01.762Z,81.40
2018-04-27T03:45:30.580Z,80.70
2018-04-27T03:47:58.606Z,80.50
2018-04-27T03:50:26.659Z,80.80
2018-04-27T03:52:54.707Z,81.00
2018-04-27T03:55:22.747Z,80.70
2018-04-27T03:57:50.807Z,80.30
2018-04-27T04:00:30.731Z,80.00
2018-04-27T04:03:10.715Z,81.20
2018-04-27T04:05:39.515Z,82.60
2018-04-27T04:08:08.331Z,81.80
2018-04-27T04:10:37.114Z,81.60
2018-04-27T04:13:05.944Z,82.50
2018-04-27T04:15:33.976Z,82.40
2018-04-27T04:18:02.023Z,82.30
2018-04-27T04:20:30.079Z,83.20
2018-04-27T04:22:58.871Z,83.40
2018-04-27T04:25:27.787Z,82.50
2018-04-27T04:27:56.582Z,82.80
2018-04-27T04:30:25.399Z,82.70
2018-04-27T04:32:53.436Z,82.70
2018-04-27T04:35:21.505Z,82.60
2018-04-27T04:37:49.540Z,82.70
2018-04-27T04:40:17.587Z,82.60
2018-04-27T04:42:45.637Z,81.90
2018-04-27T04:45:13.700Z,81.60
2018-04-27T04:47:42.503Z,82.00
2018-04-27T04:50:10.519Z,81.90
2018-04-27T04:52:38.597Z,82.20
2018-04-27T04:55:06.623Z,81.60
2018-04-27T04:57:35.440Z,81.30
2018-04-27T05:00:04.267Z,80.60
2018-04-27T05:02:32.299Z,80.50
2018-04-27T05:05:00.347Z,80.20
2018-04-27T05:07:28.392Z,80.20
2018-04-27T05:09:56.435Z,78.80
2018-04-27T05:12:24.466Z,77.60
2018-04-27T05:14:53.278Z,75.70
2018-04-27T05:17:21.327Z,75.70
2018-04-27T05:19:54.904Z,75.80
2018-04-27T05:22:23.439Z,76.10
2018-04-27T05:24:51.463Z,75.70
2018-04-27T05:27:19.515Z,74.90
2018-04-27T05:29:47.618Z,73.70
2018-04-27T05:32:15.621Z,73.30
2018-04-27T05:34:44.495Z,73.40
2018-04-27T05:37:13.307Z,74.40
2018-04-27T05:39:41.339Z,74.30
2018-04-27T05:42:09.389Z,73.70
2018-04-27T05:44:38.052Z,71.90
2018-04-27T05:47:06.104Z,70.80
2018-04-27T05:49:34.163Z,67.90
2018-04-27T05:52:02.200Z,68.90
2018-04-27T05:54:30.247Z,68.50
2018-04-27T05:56:58.646Z,68.40
2018-04-27T05:59:26.692Z,68.50
2018-04-27T06:01:54.723Z,67.00
2018-04-27T06:04:22.779Z,67.60
2018-04-27T06:06:50.820Z,65.80
2018-04-27T06:09:18.860Z,67.30
2018-04-27T06:11:46.924Z,67.30
2018-04-27T06:14:14.943Z,64.40
2018-04-27T06:16:42.986Z,64.40
2018-04-27T06:19:11.046Z,63.40
2018-04-27T06:21:39.079Z,63.20
2018-04-27T06:24:07.102Z,62.70
2018-04-27T06:26:35.911Z,62.10
2018-04-27T06:29:04.704Z,61.70
2018-04-27T06:31:33.515Z,61.80
2018-04-27T06:34:02.303Z,62.00
2018-04-27T06:36:31.133Z,61.50
2018-04-27T06:38:59.167Z,61.50
2018-04-27T06:41:27.220Z,60.00
2018-04-27T06:43:55.275Z,59.80
2018-04-27T06:46:24.076Z,58.60
2018-04-27T06:48:52.894Z,57.70
2018-04-27T06:51:20.948Z,57.70
2018-04-27T06:53:48.991Z,57.70
2018-04-27T06:56:17.035Z,58.50
2018-04-27T06:58:45.088Z,54.10
2018-04-27T07:01:13.134Z,53.00
2018-04-27T07:03:41.170Z,53.50
2018-04-27T07:06:09.251Z,52.50
2018-04-27T07:08:38.151Z,52.40
2018-04-27T07:11:06.591Z,52.10
2018-04-27T07:13:34.619Z,51.70
2018-04-27T07:16:02.701Z,50.70
2018-04-27T07:18:30.747Z,50.30
2018-04-27T07:20:58.830Z,50.10
2018-04-27T07:23:26.848Z,48.90
2018-04-27T07:25:54.939Z,49.10
2018-04-27T07:28:23.003Z,49.80
2018-04-27T07:30:51.069Z,49.80
2018-04-27T07:33:19.268Z,50.70
2018-04-27T07:35:47.579Z,47.70
2018-04-27T07:38:15.636Z,47.30
2018-04-27T07:40:43.666Z,49.00
2018-04-27T07:43:12.503Z,47.30
2018-04-27T07:45:40.535Z,47.30
2018-04-27T07:48:08.586Z,46.90
2018-04-27T07:50:36.656Z,45.50
2018-04-27T07:53:04.692Z,45.20
2018-04-27T07:55:32.748Z,44.10
2018-04-27T07:58:00.782Z,42.60
2018-04-27T08:00:29.605Z,37.90
2018-04-27T08:02:57.646Z,37.80
2018-04-27T08:05:25.695Z,37.40
2018-04-27T08:07:53.765Z,37.00
2018-04-27T08:10:21.808Z,34.00
2018-04-27T08:12:50.661Z,33.10
2018-04-27T08:15:18.695Z,33.00
2018-04-27T08:17:47.515Z,32.30
2018-04-27T08:20:19.347Z,32.00
2018-04-27T08:22:47.410Z,33.50
2018-04-27T08:25:15.452Z,32.80
2018-04-27T08:27:43.524Z,33.10
2018-04-27T08:30:12.405Z,33.40
2018-04-27T08:32:40.408Z,33.20
2018-04-27T08:35:09.224Z,31.10
2018-04-27T08:37:38.019Z,31.20
2018-04-27T08:40:06.835Z,32.50
2018-04-27T08:42:34.879Z,32.40
2018-04-27T08:45:02.931Z,31.40
2018-04-27T08:47:30.988Z,32.20
2018-04-27T08:49:59.020Z,30.70
2018-04-27T08:52:28.092Z,31.00
2018-04-27T08:54:56.131Z,32.80
2018-04-27T08:57:24.196Z,28.80
2018-04-27T08:59:52.435Z,28.80
2018-04-27T09:02:20.499Z,28.90
2018-04-27T09:04:48.524Z,30.30
2018-04-27T09:07:16.583Z,29.90
2018-04-27T09:09:44.635Z,31.20
2018-04-27T09:12:12.676Z,29.20
2018-04-27T09:14:40.731Z,27.50
2018-04-27T09:17:08.775Z,28.20
2018-04-27T09:19:37.599Z,27.90
2018-04-27T09:22:06.663Z,27.80
2018-04-27T09:24:34.847Z,27.70
2018-04-27T09:27:02.904Z,27.10
2018-04-27T09:29:30.939Z,27.40
2018-04-27T09:31:58.998Z,26.40
2018-04-27T09:34:27.038Z,27.40
2018-04-27T09:36:55.859Z,29.00
2018-04-27T09:39:24.831Z,28.80
2018-04-27T09:41:52.896Z,27.70
2018-04-27T09:44:20.927Z,26.70
2018-04-27T09:46:49.050Z,27.50
2018-04-27T09:49:17.135Z,26.00
2018-04-27T09:51:45.168Z,26.00
2018-04-27T09:54:13.978Z,26.10
2018-04-27T09:56:42.020Z,26.10
2018-04-27T09:59:10.084Z,25.50
2018-04-27T10:01:38.117Z,26.40
2018-04-27T10:04:06.191Z,26.80
2018-04-27T10:06:35.013Z,26.90
2018-04-27T10:09:03.050Z,26.80
2018-04-27T10:11:31.105Z,25.70
2018-04-27T10:13:59.139Z,25.70
2018-04-27T10:16:27.190Z,27.20
2018-04-27T10:18:55.239Z,27.50
2018-04-27T10:21:23.304Z,26.20
2018-04-27T10:23:52.122Z,26.00
2018-04-27T10:26:22.401Z,25.90
2018-04-27T10:28:50.459Z,26.70
2018-04-27T10:31:18.878Z,25.90
2018-04-27T10:33:46.956Z,26.20
2018-04-27T10:36:14.992Z,25.00
2018-04-27T10:38:43.807Z,26.00
2018-04-27T10:41:11.839Z,26.10
2018-04-27T10:43:39.895Z,25.30
2018-04-27T10:46:07.943Z,25.80
2018-04-27T10:48:35.991Z,25.00
2018-04-27T10:51:04.071Z,26.30
2018-04-27T10:53:32.113Z,25.10
2018-04-27T10:56:00.177Z,23.00
2018-04-27T10:58:28.987Z,25.00
2018-04-27T11:00:57.082Z,25.00
2018-04-27T11:03:25.172Z,23.70
2018-04-27T11:05:53.960Z,23.50
2018-04-27T11:08:22.007Z,23.40
2018-04-27T11:10:50.071Z,23.50
2018-04-27T11:13:18.127Z,24.50
2018-04-27T11:15:46.169Z,26.20
2018-04-27T11:18:14.990Z,22.60
2018-04-27T11:20:43.027Z,22.60
2018-04-27T11:23:11.112Z,22.20
2018-04-27T11:25:39.147Z,23.40
2018-04-27T11:28:07.208Z,23.60
2018-04-27T11:30:36.015Z,23.90
2018-04-27T11:33:04.831Z,23.30
2018-04-27T11:35:32.903Z,23.20
2018-04-27T11:38:01.740Z,22.30
2018-04-27T11:40:29.776Z,22.20
2018-04-27T11:42:57.832Z,24.40
2018-04-27T11:45:25.894Z,23.70
2018-04-27T11:47:53.950Z,23.30
2018-04-27T11:50:22.396Z,23.00
2018-04-27T11:52:50.447Z,21.00
2018-04-27T11:55:18.518Z,22.10
2018-04-27T11:57:46.547Z,20.60
2018-04-27T12:00:14.611Z,21.60
2018-04-27T12:02:42.668Z,22.30
2018-04-27T12:05:10.782Z,22.00
2018-04-27T12:07:38.815Z,22.00
2018-04-27T12:10:06.867Z,22.30
2018-04-27T12:12:34.927Z,21.60
2018-04-27T12:15:02.976Z,20.70
2018-04-27T12:17:31.873Z,21.50
2018-04-27T12:19:59.924Z,21.40
2018-04-27T12:22:27.983Z,19.80
2018-04-27T12:24:56.031Z,21.60
2018-04-27T12:27:24.856Z,21.50
2018-04-27T12:29:52.903Z,21.50
2018-04-27T12:32:21.751Z,22.00
2018-04-27T12:34:49.811Z,21.80
2018-04-27T12:37:17.856Z,21.70
2018-04-27T12:39:45.932Z,21.50
2018-04-27T12:42:13.973Z,21.70
2018-04-27T12:44:42.047Z,21.70
2018-04-27T12:47:10.096Z,19.50
2018-04-27T12:49:38.159Z,20.40
2018-04-27T12:52:06.207Z,19.40
2018-04-27T12:54:34.267Z,18.20
2018-04-27T12:57:02.335Z,19.40
2018-04-27T12:59:30.375Z,20.20
2018-04-27T13:01:58.439Z,18.30
2018-04-27T13:04:26.484Z,19.50
2018-04-27T13:06:54.556Z,18.90
2018-04-27T13:09:22.606Z,20.30
2018-04-27T13:11:50.671Z,20.70
2018-04-27T13:14:19.488Z,19.20
2018-04-27T13:16:47.559Z,19.30
2018-04-27T13:19:15.632Z,20.10
2018-04-27T13:21:44.467Z,19.20
2018-04-27T13:24:12.491Z,19.20
2018-04-27T13:26:40.636Z,18.40
2018-04-27T13:29:09.439Z,16.40
2018-04-27T13:31:37.473Z,16.40
2018-04-27T13:34:05.540Z,18.90
2018-04-27T13:36:33.560Z,20.20
2018-04-27T13:39:02.501Z,20.60
2018-04-27T13:41:30.538Z,20.60
2018-04-27T13:43:58.591Z,18.60
2018-04-27T13:46:26.631Z,18.80
2018-04-27T13:48:54.697Z,19.20
2018-04-27T13:51:23.580Z,19.20
2018-04-27T13:53:51.652Z,19.20
2018-04-27T13:56:19.699Z,17.70
2018-04-27T13:58:47.757Z,19.30
2018-04-27T14:01:16.583Z,17.70
2018-04-27T14:03:44.700Z,17.60
2018-04-27T14:06:12.776Z,17.30
2018-04-27T14:08:40.823Z,17.90
2018-04-27T14:11:08.974Z,18.20
2018-04-27T14:13:36.963Z,16.80
2018-04-27T14:16:05.026Z,15.90
2018-04-27T14:18:33.206Z,16.00
2018-04-27T14:21:01.277Z,16.00
2018-04-27T14:23:29.336Z,16.50
2018-04-27T14:25:57.373Z,17.00
2018-04-27T14:28:25.446Z,17.30
2018-04-27T14:30:53.512Z,16.00
2018-04-27T14:33:21.579Z,16.50
2018-04-27T14:35:49.656Z,16.10
2018-04-27T14:38:17.696Z,16.00
2018-04-27T14:40:45.762Z,16.00
2018-04-27T14:43:13.799Z,17.30
2018-04-27T14:45:42.619Z,16.50
2018-04-27T14:48:10.676Z,16.50
2018-04-27T14:50:39.519Z,15.20
2018-04-27T14:53:07.592Z,15.20
2018-04-27T14:55:35.647Z,15.60
2018-04-27T14:58:04.483Z,14.30
2018-04-27T15:00:32.560Z,14.20
2018-04-27T15:03:00.627Z,16.30
2018-04-27T15:05:29.440Z,14.50
2018-04-27T15:07:57.495Z,14.50
2018-04-27T15:10:26.307Z,15.70
2018-04-27T15:12:55.441Z,16.30
2018-04-27T15:15:23.509Z,16.30
2018-04-27T15:17:51.564Z,15.40
2018-04-27T15:20:20.392Z,15.60
2018-04-27T15:22:48.440Z,15.10
2018-04-27T15:25:16.503Z,14.50
2018-04-27T15:27:44.556Z,15.80
2018-04-27T15:30:12.616Z,15.50
2018-04-27T15:32:41.419Z,14.80
2018-04-27T15:35:11.152Z,14.40
2018-04-27T15:37:39.964Z,15.50
2018-04-27T15:40:08.015Z,15.40
2018-04-27T15:42:36.063Z,15.10
2018-04-27T15:45:04.103Z,15.50
2018-04-27T15:47:33.067Z,16.10
2018-04-27T15:50:01.112Z,16.10
2018-04-27T15:52:29.171Z,16.10
2018-04-27T15:54:57.966Z,16.00
2018-04-27T15:57:26.826Z,15.40
2018-04-27T15:59:54.853Z,15.40
2018-04-27T16:02:23.688Z,17.10
2018-04-27T16:04:51.859Z,17.10
2018-04-27T16:07:19.900Z,16.30
2018-04-27T16:09:47.959Z,15.50
2018-04-27T16:12:15.999Z,16.00
2018-04-27T16:14:46.105Z,16.40
2018-04-27T16:17:15.011Z,16.40
2018-04-27T16:19:44.587Z,16.40
2018-04-27T16:22:12.661Z,16.40
2018-04-27T16:24:40.708Z,16.60
2018-04-27T16:27:09.863Z,17.20
2018-04-27T16:29:37.900Z,17.10
2018-04-27T16:32:06.095Z,18.40
2018-04-27T16:34:34.903Z,19.60
2018-04-27T16:37:03.773Z,18.70
2018-04-27T16:39:32.639Z,18.70
2018-04-27T16:42:00.770Z,19.60
2018-04-27T16:44:28.782Z,20.80
2018-04-27T16:46:56.826Z,20.50
2018-04-27T16:49:24.899Z,20.80
2018-04-27T16:51:52.948Z,20.10
2018-04-27T16:54:21.017Z,21.40
2018-04-27T16:56:49.828Z,21.80
2018-04-27T16:59:17.892Z,21.80
2018-04-27T17:01:46.716Z,21.70
2018-04-27T17:04:14.805Z,21.60
2018-04-27T17:06:43.024Z,22.20
2018-04-27T17:09:11.075Z,22.40
2018-04-27T17:11:39.139Z,22.90
2018-04-27T17:14:07.959Z,22.80
2018-04-27T17:16:36.021Z,22.70
2018-04-27T17:19:04.832Z,22.50
2018-04-27T17:21:32.908Z,22.40
2018-04-27T17:24:01.741Z,23.90
2018-04-27T17:26:29.817Z,23.80
2018-04-27T17:28:57.867Z,23.60
2018-04-27T17:31:25.928Z,24.40
2018-04-27T17:33:54.000Z,24.50
2018-04-27T17:36:22.047Z,25.30
2018-04-27T17:38:50.144Z,25.50
2018-04-27T17:41:18.183Z,26.00
2018-04-27T17:43:46.248Z,25.90
2018-04-27T17:46:14.301Z,26.00
2018-04-27T17:48:42.353Z,26.60
2018-04-27T17:51:11.204Z,26.90
2018-04-27T17:53:39.248Z,26.80
2018-04-27T17:56:07.312Z,27.10
2018-04-27T17:58:36.138Z,27.70
2018-04-27T18:01:04.215Z,27.60
2018-04-27T18:03:32.256Z,28.00
2018-04-27T18:06:00.312Z,27.90
2018-04-27T18:08:28.362Z,28.00
2018-04-27T18:10:57.196Z,28.60
2018-04-27T18:13:25.252Z,28.60
2018-04-27T18:15:54.068Z,28.90
2018-04-27T18:18:22.143Z,28.90
2018-04-27T18:20:50.212Z,29.20
2018-04-27T18:23:19.040Z,30.10
2018-04-27T18:25:47.089Z,30.00
2018-04-27T18:28:15.150Z,30.10
2018-04-27T18:30:43.187Z,30.70
2018-04-27T18:33:11.307Z,31.20
2018-04-27T18:35:39.425Z,31.20
2018-04-27T18:38:07.414Z,31.90
2018-04-27T18:40:36.245Z,32.50
2018-04-27T18:43:04.284Z,32.50
2018-04-27T18:45:32.338Z,33.30
2018-04-27T18:48:00.385Z,33.40
2018-04-27T18:50:29.239Z,33.30
2018-04-27T18:52:57.272Z,33.20
2018-04-27T18:55:26.102Z,33.30
2018-04-27T18:57:54.180Z,33.30
2018-04-27T19:00:26.991Z,33.20
2018-04-27T19:02:55.051Z,33.30
2018-04-27T19:05:23.108Z,33.40
2018-04-27T19:07:51.950Z,34.00
2018-04-27T19:10:20.007Z,34.00
2018-04-27T19:12:48.907Z,35.40
2018-04-27T19:15:16.973Z,35.30
2018-04-27T19:17:45.036Z,35.30
2018-04-27T19:20:13.079Z,35.30
2018-04-27T19:22:43.050Z,35.70
2018-04-27T19:25:11.084Z,36.10
2018-04-27T19:27:39.138Z,36.90
2018-04-27T19:30:07.946Z,38.30
2018-04-27T19:32:36.773Z,38.40
2018-04-27T19:35:04.828Z,38.40
2018-04-27T19:37:33.699Z,38.90
2018-04-27T19:40:01.736Z,38.90
2018-04-27T19:42:29.774Z,39.00
2018-04-27T19:44:57.843Z,39.20
2018-04-27T19:47:25.916Z,39.50
2018-04-27T19:49:53.985Z,40.00
2018-04-27T19:52:22.080Z,40.60
2018-04-27T19:54:50.476Z,40.10
2018-04-27T19:57:18.539Z,40.60
2018-04-27T19:59:47.334Z,40.90
2018-04-27T20:02:15.394Z,40.90
2018-04-27T20:04:43.450Z,41.20
2018-04-27T20:07:11.495Z,41.90
2018-04-27T20:09:40.571Z,41.90
2018-04-27T20:12:09.384Z,41.90
2018-04-27T20:14:37.474Z,41.80
2018-04-27T20:17:06.264Z,42.50
2018-04-27T20:19:37.989Z,42.50
2018-04-27T20:22:11.777Z,42.50
2018-04-27T20:24:39.774Z,42.60
2018-04-27T20:27:07.822Z,42.80
2018-04-27T20:29:36.688Z,44.10
2018-04-27T20:32:05.457Z,43.90
2018-04-27T20:34:33.496Z,43.90
2018-04-27T20:37:01.922Z,44.60
2018-04-27T20:39:30.720Z,45.30
2018-04-27T20:41:59.577Z,46.20
2018-04-27T20:44:27.700Z,46.10
2018-04-27T20:46:56.536Z,45.70
2018-04-27T20:49:24.593Z,45.60
2018-04-27T20:51:52.634Z,45.40
2018-04-27T20:54:20.695Z,45.90
2018-04-27T20:56:49.496Z,45.50
2018-04-27T20:59:19.330Z,45.60
2018-04-27T21:01:47.366Z,45.80
2018-04-27T21:04:16.194Z,45.40
2018-04-27T21:06:44.236Z,45.40
2018-04-27T21:09:12.291Z,45.50
2018-04-27T21:11:40.339Z,45.90
2018-04-27T21:14:08.389Z,45.80
2018-04-27T21:16:37.206Z,45.70
2018-04-27T21:19:05.243Z,45.70
2018-04-27T21:21:33.295Z,46.70
2018-04-27T21:24:01.338Z,47.10
2018-04-27T21:26:29.383Z,47.60
2018-04-27T21:28:57.427Z,47.30
2018-04-27T21:31:25.496Z,47.50
2018-04-27T21:33:54.755Z,47.50
2018-04-27T21:36:25.603Z,47.50
2018-04-27T21:39:12.563Z,47.60
2018-04-27T21:41:58.323Z,47.00
2018-04-27T21:47:25.500Z,48.30
2018-04-27T21:49:54.476Z,48.30
2018-04-27T21:52:35.090Z,48.30
2018-04-27T21:55:03.901Z,48.30
2018-04-27T22:00:22.478Z,48.30
2018-04-27T22:03:02.339Z,48.40
2018-04-27T22:05:33.682Z,48.50
2018-04-27T22:08:04.552Z,48.50
2018-04-27T22:10:33.367Z,47.60
2018-04-27T22:13:01.408Z,47.60
2018-04-27T22:15:30.398Z,48.30
2018-04-27T22:17:59.372Z,47.70
2018-04-27T22:20:32.099Z,48.70
2018-04-27T22:23:00.126Z,47.50
2018-04-27T22:25:28.931Z,48.30
2018-04-27T22:28:02.807Z,48.20
2018-04-27T22:30:33.762Z,48.70
2018-04-27T22:36:06.928Z,48.60
2018-04-27T22:38:41.362Z,48.70
2018-04-27T22:41:11.688Z,48.60
2018-04-27T22:43:39.735Z,49.40
2018-04-27T22:46:14.959Z,50.10
2018-04-27T22:48:44.805Z,50.00
2018-04-27T22:51:13.666Z,49.80
2018-04-27T22:53:44.991Z,49.40
2018-04-27T22:56:30.628Z,49.20
2018-04-27T22:58:59.460Z,49.40
2018-04-27T23:01:27.638Z,49.40
2018-04-27T23:04:04.302Z,49.60
2018-04-27T23:06:33.099Z,50.60
2018-04-27T23:09:02.027Z,50.50
2018-04-27T23:11:30.068Z,50.30
2018-04-27T23:16:51.599Z,51.00
2018-04-27T23:19:20.419Z,51.20
2018-04-27T23:22:04.122Z,51.60
2018-04-27T23:24:39.471Z,51.80
2018-04-27T23:27:08.286Z,51.50
2018-04-27T23:29:36.331Z,51.50
2018-04-27T23:32:04.388Z,51.70
2018-04-27T23:34:32.417Z,51.80
2018-04-27T23:37:01.243Z,51.70
2018-04-27T23:39:29.283Z,51.70
2018-04-27T23:41:57.331Z,51.10
2018-04-27T23:44:25.394Z,51.10
2018-04-27T23:46:54.703Z,52.30
2018-04-27T23:49:23.613Z,52.40
2018-04-27T23:51:51.663Z,52.30
2018-04-27T23:54:19.711Z,51.90
2018-04-27T23:56:49.503Z,51.20
2018-04-27T23:59:21.397Z,51.80
